createdAt,value
2018-10-16T00:00:17.358Z,99.90
2018-10-16T00:02:46.474Z,99.70
2018-10-16T00:05:15.710Z,99.70
2018-10-16T00:07:44.387Z,99.80
2018-10-16T00:10:12.964Z,99.90
2018-10-16T00:12:41.619Z,99.90
2018-10-16T00:15:10.763Z,99.90
2018-10-16T00:17:39.343Z,99.90
2018-10-16T00:20:08.098Z,99.90
2018-10-16T00:22:36.812Z,99.90
2018-10-16T00:25:07.164Z,99.90
2018-10-16T00:27:35.671Z,99.90
2018-10-16T00:30:04.178Z,99.90
2018-10-16T00:32:32.774Z,99.90
2018-10-16T00:35:01.309Z,99.90
2018-10-16T00:37:29.811Z,99.90
2018-10-16T00:39:58.276Z,99.90
2018-10-16T00:42:26.952Z,99.90
2018-10-16T00:44:55.455Z,99.90
2018-10-16T00:47:24.016Z,99.90
2018-10-16T00:49:52.633Z,99.70
2018-10-16T00:52:21.295Z,99.40
2018-10-16T00:54:49.875Z,99.20
2018-10-16T00:57:18.510Z,99.10
2018-10-16T00:59:47.091Z,99.20
2018-10-16T01:02:15.578Z,99.30
2018-10-16T01:04:44.075Z,99.50
2018-10-16T01:07:12.628Z,99.60
2018-10-16T01:09:41.094Z,99.70
2018-10-16T01:12:09.638Z,99.50
2018-10-16T01:14:38.295Z,99.60
2018-10-16T01:17:06.782Z,99.70
2018-10-16T01:19:35.469Z,99.70
2018-10-16T01:22:04.044Z,99.80
2018-10-16T01:24:32.900Z,99.90
2018-10-16T01:27:01.613Z,99.90
2018-10-16T01:29:30.055Z,99.80
2018-10-16T01:31:58.826Z,99.90
2018-10-16T01:34:27.315Z,99.90
2018-10-16T01:36:55.831Z,99.90
2018-10-16T01:39:24.612Z,99.90
2018-10-16T01:41:53.134Z,99.90
2018-10-16T01:44:21.633Z,99.90
2018-10-16T01:46:50.319Z,99.90
2018-10-16T01:49:19.010Z,99.90
2018-10-16T01:51:47.462Z,99.90
2018-10-16T01:54:15.979Z,99.90
2018-10-16T01:56:44.738Z,99.90
2018-10-16T01:59:13.271Z,99.90
2018-10-16T02:01:42.175Z,99.90
2018-10-16T02:04:10.639Z,99.90
2018-10-16T02:06:39.291Z,99.90
2018-10-16T02:09:10.155Z,99.90
2018-10-16T02:11:38.679Z,99.90
2018-10-16T02:14:07.232Z,99.90
2018-10-16T02:16:36.016Z,99.90
2018-10-16T02:19:04.567Z,99.90
2018-10-16T02:21:33.139Z,99.90
2018-10-16T02:24:01.936Z,99.90
2018-10-16T02:26:30.410Z,99.90
2018-10-16T02:28:58.958Z,99.90
2018-10-16T02:31:27.478Z,99.90
2018-10-16T02:33:55.970Z,99.90
2018-10-16T02:36:24.440Z,99.90
2018-10-16T02:38:53.064Z,99.90
2018-10-16T02:41:21.603Z,99.90
2018-10-16T02:43:50.091Z,99.90
2018-10-16T02:46:18.788Z,99.90
2018-10-16T02:48:47.226Z,99.90
2018-10-16T02:51:16.022Z,99.90
2018-10-16T02:53:44.462Z,99.90
2018-10-16T02:56:12.986Z,99.90
2018-10-16T02:58:41.511Z,99.90
2018-10-16T03:01:10.304Z,99.90
2018-10-16T03:03:39.899Z,99.90
2018-10-16T03:06:08.554Z,99.90
2018-10-16T03:08:38.094Z,99.90
2018-10-16T03:11:06.930Z,99.90
2018-10-16T03:13:35.686Z,99.90
2018-10-16T03:16:04.464Z,99.90
2018-10-16T03:18:32.982Z,99.90
2018-10-16T03:21:01.499Z,99.90
2018-10-16T03:23:29.978Z,99.90
2018-10-16T03:25:58.543Z,99.90
2018-10-16T03:28:27.068Z,99.90
2018-10-16T03:30:55.755Z,99.90
2018-10-16T03:33:24.315Z,99.90
2018-10-16T03:35:52.838Z,99.90
2018-10-16T03:38:21.424Z,99.90
2018-10-16T03:40:49.935Z,99.90
2018-10-16T03:43:18.403Z,99.90
2018-10-16T03:45:46.895Z,99.90
2018-10-16T03:48:15.511Z,99.90
2018-10-16T03:50:43.990Z,99.90
2018-10-16T03:53:12.476Z,99.90
2018-10-16T03:55:40.953Z,99.90
2018-10-16T03:58:09.424Z,99.90
2018-10-16T04:00:37.962Z,99.90
2018-10-16T04:03:06.720Z,99.90
2018-10-16T04:05:41.823Z,99.90
2018-10-16T04:08:10.403Z,99.90
2018-10-16T04:10:38.939Z,99.90
2018-10-16T04:13:07.607Z,99.90
2018-10-16T04:15:36.160Z,99.90
2018-10-16T04:18:05.109Z,99.90
2018-10-16T04:20:33.632Z,99.90
2018-10-16T04:23:02.377Z,99.90
2018-10-16T04:25:30.857Z,99.90
2018-10-16T04:27:59.421Z,99.90
2018-10-16T04:30:27.984Z,99.90
2018-10-16T04:32:56.691Z,99.90
2018-10-16T04:35:25.256Z,99.90
2018-10-16T04:37:54.128Z,99.90
2018-10-16T04:40:22.795Z,99.90
2018-10-16T04:42:51.292Z,99.90
2018-10-16T04:45:19.876Z,99.90
2018-10-16T04:47:48.459Z,99.90
2018-10-16T04:50:17.078Z,99.90
2018-10-16T04:52:45.728Z,99.90
2018-10-16T04:55:14.401Z,99.90
2018-10-16T04:57:42.800Z,99.90
2018-10-16T05:00:11.469Z,99.90
2018-10-16T05:02:41.243Z,99.90
2018-10-16T05:05:13.899Z,99.90
2018-10-16T05:07:42.359Z,99.90
2018-10-16T05:10:10.886Z,99.90
2018-10-16T05:12:39.342Z,99.90
2018-10-16T05:15:10.195Z,99.90
2018-10-16T05:17:38.770Z,99.90
2018-10-16T05:20:07.296Z,99.90
2018-10-16T05:22:35.981Z,99.90
2018-10-16T05:25:04.836Z,99.90
2018-10-16T05:27:33.744Z,99.90
2018-10-16T05:30:02.564Z,99.90
2018-10-16T05:32:31.043Z,99.90
2018-10-16T05:34:59.554Z,99.90
2018-10-16T05:37:28.083Z,99.90
2018-10-16T05:39:56.743Z,99.90
2018-10-16T05:42:25.541Z,99.90
2018-10-16T05:44:54.255Z,99.90
2018-10-16T05:47:22.807Z,99.90
2018-10-16T05:49:51.363Z,99.90
2018-10-16T05:52:19.858Z,99.90
2018-10-16T05:54:48.540Z,99.90
2018-10-16T05:57:17.247Z,99.90
2018-10-16T05:59:45.814Z,99.90
2018-10-16T06:02:14.274Z,99.90
2018-10-16T06:04:43.006Z,99.90
2018-10-16T06:07:11.662Z,99.90
2018-10-16T06:09:40.146Z,99.90
2018-10-16T06:12:08.739Z,99.90
2018-10-16T06:14:37.278Z,99.90
2018-10-16T06:17:05.981Z,99.90
2018-10-16T06:19:34.507Z,99.90
2018-10-16T06:22:03.170Z,99.90
2018-10-16T06:24:31.674Z,99.90
2018-10-16T06:27:00.341Z,99.90
2018-10-16T06:29:29.598Z,99.90
2018-10-16T06:31:58.125Z,99.90
2018-10-16T06:34:26.666Z,99.90
2018-10-16T06:36:55.366Z,99.90
2018-10-16T06:39:23.884Z,99.90
2018-10-16T06:41:52.447Z,99.90
2018-10-16T06:44:21.038Z,99.90
2018-10-16T06:46:49.593Z,99.90
2018-10-16T06:49:18.186Z,99.90
2018-10-16T06:51:46.898Z,99.90
2018-10-16T06:54:15.478Z,99.90
2018-10-16T06:56:44.033Z,99.90
2018-10-16T06:59:12.562Z,99.90
2018-10-16T07:01:41.282Z,99.90
2018-10-16T07:04:09.854Z,99.90
2018-10-16T07:06:38.355Z,99.90
2018-10-16T07:09:08.406Z,99.90
2018-10-16T07:11:39.255Z,99.90
2018-10-16T07:14:10.439Z,99.90
2018-10-16T07:16:39.333Z,99.90
2018-10-16T07:19:08.791Z,99.90
2018-10-16T07:21:37.397Z,99.90
2018-10-16T07:24:06.876Z,99.90
2018-10-16T07:26:35.494Z,99.90
2018-10-16T07:29:04.154Z,99.90
2018-10-16T07:31:32.987Z,99.90
2018-10-16T07:34:01.639Z,99.90
2018-10-16T07:36:30.271Z,99.90
2018-10-16T07:38:58.996Z,99.90
2018-10-16T07:41:27.384Z,99.90
2018-10-16T07:43:56.111Z,99.90
2018-10-16T07:46:25.447Z,99.90
2018-10-16T07:48:54.216Z,99.90
2018-10-16T07:51:22.776Z,99.90
2018-10-16T07:53:51.435Z,99.90
2018-10-16T07:56:19.918Z,99.90
2018-10-16T07:58:48.500Z,99.90
2018-10-16T08:01:17.048Z,99.90
2018-10-16T08:03:45.676Z,99.90
2018-10-16T08:06:14.314Z,99.90
2018-10-16T08:08:42.990Z,99.90
2018-10-16T08:11:11.577Z,99.90
2018-10-16T08:13:40.112Z,99.90
2018-10-16T08:16:09.911Z,99.90
2018-10-16T08:18:38.695Z,99.90
2018-10-16T08:21:07.539Z,99.90
2018-10-16T08:23:36.047Z,99.90
2018-10-16T08:26:05.839Z,99.90
2018-10-16T08:28:34.349Z,99.90
2018-10-16T08:31:03.107Z,99.90
2018-10-16T08:33:31.639Z,99.90
2018-10-16T08:36:00.470Z,99.90
2018-10-16T08:38:43.580Z,99.90
2018-10-16T08:41:14.805Z,99.90
2018-10-16T08:43:54.684Z,99.90
2018-10-16T08:46:34.418Z,99.90
2018-10-16T08:49:14.410Z,99.90
2018-10-16T08:51:51.420Z,99.90
2018-10-16T08:54:20.346Z,99.90
2018-10-16T08:56:49.067Z,99.90
2018-10-16T08:59:17.594Z,99.90
2018-10-16T09:01:46.155Z,99.90
2018-10-16T09:04:14.763Z,99.90
2018-10-16T09:06:43.416Z,99.90
2018-10-16T09:09:14.171Z,99.90
2018-10-16T09:11:43.931Z,99.90
2018-10-16T09:14:13.423Z,99.90
2018-10-16T09:16:42.055Z,99.90
2018-10-16T09:19:10.684Z,99.90
2018-10-16T09:21:39.447Z,99.90
2018-10-16T09:24:08.385Z,99.90
2018-10-16T09:26:36.927Z,99.90
2018-10-16T09:29:05.755Z,99.90
2018-10-16T09:31:34.467Z,99.90
2018-10-16T09:34:03.423Z,99.90
2018-10-16T09:36:31.943Z,99.90
2018-10-16T09:39:00.495Z,99.90
2018-10-16T09:41:29.433Z,99.90
2018-10-16T09:43:57.983Z,99.90
2018-10-16T09:46:26.592Z,99.90
2018-10-16T09:48:55.092Z,99.90
2018-10-16T09:51:23.786Z,99.90
2018-10-16T09:53:52.373Z,99.90
2018-10-16T09:56:21.082Z,99.90
2018-10-16T09:58:49.880Z,99.90
2018-10-16T10:01:23.751Z,99.90
2018-10-16T10:03:52.615Z,99.90
2018-10-16T10:06:21.151Z,99.90
2018-10-16T10:08:49.799Z,99.90
2018-10-16T10:11:18.352Z,99.90
2018-10-16T10:13:46.915Z,99.90
2018-10-16T10:16:15.539Z,99.90
2018-10-16T10:18:44.055Z,99.90
2018-10-16T10:21:12.575Z,99.90
2018-10-16T10:23:41.261Z,99.90
2018-10-16T10:26:09.818Z,99.90
2018-10-16T10:28:38.539Z,99.90
2018-10-16T10:31:07.166Z,99.90
2018-10-16T10:33:35.635Z,99.90
2018-10-16T10:36:04.190Z,99.90
2018-10-16T10:38:32.737Z,99.90
2018-10-16T10:41:01.298Z,99.90
2018-10-16T10:43:29.810Z,99.90
2018-10-16T10:45:58.475Z,99.90
2018-10-16T10:48:27.005Z,99.90
2018-10-16T10:50:55.697Z,99.90
2018-10-16T10:53:24.017Z,99.90
2018-10-16T10:55:52.495Z,99.90
2018-10-16T10:58:20.980Z,99.90
2018-10-16T11:00:49.552Z,99.90
2018-10-16T11:03:18.152Z,99.90
2018-10-16T11:05:46.585Z,99.90
2018-10-16T11:08:15.085Z,99.90
2018-10-16T11:10:43.572Z,99.90
2018-10-16T11:13:12.170Z,99.90
2018-10-16T11:15:40.714Z,99.90
2018-10-16T11:18:09.423Z,99.90
2018-10-16T11:20:38.003Z,99.90
2018-10-16T11:23:06.827Z,99.90
2018-10-16T11:25:35.517Z,99.90
2018-10-16T11:28:04.148Z,99.90
2018-10-16T11:30:32.718Z,99.90
2018-10-16T11:33:01.239Z,99.90
2018-10-16T11:35:29.738Z,99.90
2018-10-16T11:37:58.403Z,99.90
2018-10-16T11:40:27.020Z,99.90
2018-10-16T11:42:55.660Z,99.90
2018-10-16T11:45:24.192Z,99.90
2018-10-16T11:47:52.959Z,99.90
2018-10-16T11:50:21.597Z,99.90
2018-10-16T11:52:50.130Z,99.90
2018-10-16T11:55:18.806Z,99.90
2018-10-16T11:57:47.445Z,99.90
2018-10-16T12:00:17.592Z,99.90
2018-10-16T12:02:46.843Z,99.90
2018-10-16T12:07:53.448Z,99.90
2018-10-16T12:10:22.133Z,99.90
2018-10-16T12:12:50.888Z,99.90
2018-10-16T12:15:19.391Z,99.90
2018-10-16T12:18:03.639Z,99.90
2018-10-16T12:20:35.839Z,99.90
2018-10-16T12:23:04.556Z,99.90
2018-10-16T12:25:33.404Z,99.90
2018-10-16T12:28:02.137Z,99.90
2018-10-16T12:30:30.753Z,99.90
2018-10-16T12:32:59.461Z,99.90
2018-10-16T12:35:28.270Z,99.90
2018-10-16T12:37:56.861Z,99.90
2018-10-16T12:40:25.379Z,99.90
2018-10-16T12:42:54.051Z,99.90
2018-10-16T12:45:22.660Z,99.90
2018-10-16T12:47:51.205Z,99.90
2018-10-16T12:50:19.868Z,99.90
2018-10-16T12:52:48.437Z,99.90
2018-10-16T12:55:16.950Z,99.90
2018-10-16T12:57:45.609Z,99.90
2018-10-16T13:00:14.329Z,99.90
2018-10-16T13:02:42.811Z,99.90
2018-10-16T13:05:11.378Z,99.90
2018-10-16T13:07:40.354Z,99.90
2018-10-16T13:10:14.555Z,99.90
2018-10-16T13:12:44.283Z,99.90
2018-10-16T13:15:13.892Z,99.90
2018-10-16T13:17:42.418Z,99.90
2018-10-16T13:20:12.704Z,99.90
2018-10-16T13:22:42.651Z,99.90
2018-10-16T13:25:12.836Z,99.90
2018-10-16T13:27:41.740Z,99.90
2018-10-16T13:30:13.335Z,99.90
2018-10-16T13:32:42.071Z,99.90
2018-10-16T13:35:12.902Z,99.90
2018-10-16T13:37:41.780Z,99.90
2018-10-16T13:40:11.149Z,99.90
2018-10-16T13:42:39.778Z,99.90
2018-10-16T13:45:09.553Z,99.90
2018-10-16T13:47:38.159Z,99.90
2018-10-16T13:50:08.837Z,99.90
2018-10-16T13:52:37.607Z,99.90
2018-10-16T13:55:06.591Z,99.90
2018-10-16T13:57:35.222Z,99.90
2018-10-16T14:00:05.747Z,99.90
2018-10-16T14:02:34.263Z,99.90
2018-10-16T14:05:03.039Z,99.90
2018-10-16T14:07:31.532Z,99.90
2018-10-16T14:10:00.172Z,99.90
2018-10-16T14:12:28.656Z,99.90
2018-10-16T14:14:57.328Z,99.90
2018-10-16T14:17:26.117Z,99.90
2018-10-16T14:19:54.874Z,99.90
2018-10-16T14:22:23.736Z,99.90
2018-10-16T14:24:52.356Z,99.90
2018-10-16T14:27:20.832Z,99.90
2018-10-16T14:29:49.367Z,99.90
2018-10-16T14:32:18.450Z,99.90
2018-10-16T14:34:46.900Z,99.90
2018-10-16T14:37:15.525Z,99.90
2018-10-16T14:39:44.281Z,99.90
2018-10-16T14:42:12.889Z,99.90
2018-10-16T14:44:41.428Z,99.90
2018-10-16T14:47:10.058Z,99.90
2018-10-16T14:49:38.893Z,99.90
2018-10-16T14:52:07.508Z,99.90
2018-10-16T14:54:35.985Z,99.90
2018-10-16T14:57:04.694Z,99.90
2018-10-16T14:59:33.283Z,99.90
2018-10-16T15:02:02.137Z,99.90
2018-10-16T15:04:30.732Z,99.90
2018-10-16T15:06:59.465Z,99.90
2018-10-16T15:09:27.985Z,99.90
2018-10-16T15:11:56.583Z,99.90
2018-10-16T15:14:25.115Z,99.90
2018-10-16T15:16:53.843Z,99.90
2018-10-16T15:19:22.433Z,99.90
2018-10-16T15:21:51.217Z,99.90
2018-10-16T15:24:19.867Z,99.90
2018-10-16T15:26:48.431Z,99.90
2018-10-16T15:29:17.144Z,99.90
2018-10-16T15:31:45.691Z,99.90
2018-10-16T15:34:14.495Z,99.90
2018-10-16T15:36:43.334Z,99.90
2018-10-16T15:39:13.131Z,99.90
2018-10-16T15:41:41.822Z,99.90
2018-10-16T15:44:10.506Z,99.90
2018-10-16T15:46:39.788Z,99.90
2018-10-16T15:49:08.399Z,99.90
2018-10-16T15:51:37.145Z,99.90
2018-10-16T15:54:06.434Z,99.90
2018-10-16T15:56:35.135Z,99.90
2018-10-16T15:59:03.866Z,99.90
2018-10-16T16:01:32.418Z,99.90
2018-10-16T16:04:00.941Z,99.90
2018-10-16T16:06:29.635Z,99.90
2018-10-16T16:08:58.196Z,99.90
2018-10-16T16:11:26.926Z,99.90
2018-10-16T16:13:55.591Z,99.90
2018-10-16T16:16:24.254Z,99.90
2018-10-16T16:18:52.924Z,99.90
2018-10-16T16:21:21.570Z,99.90
2018-10-16T16:23:50.219Z,99.90
2018-10-16T16:26:18.937Z,99.90
2018-10-16T16:28:47.462Z,99.90
2018-10-16T16:31:16.284Z,99.90
2018-10-16T16:33:45.098Z,99.90
2018-10-16T16:36:13.925Z,99.90
2018-10-16T16:38:42.493Z,99.90
2018-10-16T16:41:11.401Z,99.90
2018-10-16T16:43:40.124Z,99.90
2018-10-16T16:46:08.848Z,99.90
2018-10-16T16:48:37.549Z,99.90
2018-10-16T16:51:06.474Z,99.90
2018-10-16T16:53:35.123Z,99.90
2018-10-16T16:56:04.165Z,99.90
2018-10-16T16:58:33.033Z,99.90
2018-10-16T17:01:01.734Z,99.90
2018-10-16T17:03:30.280Z,99.90
2018-10-16T17:05:58.947Z,99.90
2018-10-16T17:08:27.962Z,99.90
2018-10-16T17:10:56.525Z,99.90
2018-10-16T17:13:25.302Z,99.90
2018-10-16T17:15:53.980Z,99.90
2018-10-16T17:18:22.722Z,99.90
2018-10-16T17:20:51.464Z,99.90
2018-10-16T17:23:20.237Z,99.90
2018-10-16T17:25:49.242Z,99.90
2018-10-16T17:28:17.745Z,99.90
2018-10-16T17:30:46.495Z,99.90
2018-10-16T17:33:15.188Z,99.90
2018-10-16T17:35:43.846Z,99.90
2018-10-16T17:38:12.559Z,99.90
2018-10-16T17:40:41.155Z,99.90
2018-10-16T17:43:09.778Z,99.90
2018-10-16T17:45:38.461Z,99.90
2018-10-16T17:48:07.171Z,99.90
2018-10-16T17:50:35.911Z,99.90
2018-10-16T17:53:04.859Z,99.90
2018-10-16T17:55:33.621Z,99.90
2018-10-16T17:58:02.539Z,99.90
2018-10-16T18:00:31.080Z,99.90
2018-10-16T18:02:59.812Z,99.90
2018-10-16T18:05:28.413Z,99.90
2018-10-16T18:07:57.032Z,99.90
2018-10-16T18:10:25.609Z,99.90
2018-10-16T18:12:54.324Z,99.90
2018-10-16T18:15:22.981Z,99.90
2018-10-16T18:17:51.534Z,99.90
2018-10-16T18:20:20.132Z,99.90
2018-10-16T18:22:48.720Z,99.90
2018-10-16T18:25:17.667Z,99.90
2018-10-16T18:27:46.660Z,99.90
2018-10-16T18:30:15.264Z,99.90
2018-10-16T18:32:44.099Z,99.90
2018-10-16T18:35:12.804Z,99.90
2018-10-16T18:37:42.585Z,99.90
2018-10-16T18:40:12.048Z,99.90
2018-10-16T18:42:41.317Z,99.90
2018-10-16T18:45:11.435Z,99.90
2018-10-16T18:47:39.929Z,99.90
2018-10-16T18:50:10.156Z,99.90
2018-10-16T18:52:38.758Z,99.90
2018-10-16T18:55:09.085Z,99.90
2018-10-16T18:57:38.283Z,99.90
2018-10-16T19:00:10.105Z,99.90
2018-10-16T19:02:39.001Z,99.90
2018-10-16T19:05:08.768Z,99.90
2018-10-16T19:07:37.747Z,99.90
2018-10-16T19:10:07.013Z,99.90
2018-10-16T19:12:36.600Z,99.90
2018-10-16T19:15:06.001Z,99.90
2018-10-16T19:17:34.609Z,99.90
2018-10-16T19:20:03.555Z,99.90
2018-10-16T19:22:32.184Z,99.90
2018-10-16T19:25:01.002Z,99.90
2018-10-16T19:27:29.911Z,99.90
2018-10-16T19:29:58.647Z,99.90
2018-10-16T19:32:27.489Z,99.90
2018-10-16T19:34:56.101Z,99.90
2018-10-16T19:37:24.757Z,99.90
2018-10-16T19:39:53.550Z,99.90
2018-10-16T19:42:22.227Z,99.90
2018-10-16T19:44:50.939Z,99.90
2018-10-16T19:47:19.527Z,99.90
2018-10-16T19:49:48.170Z,99.90
2018-10-16T19:52:16.789Z,99.90
2018-10-16T19:54:45.527Z,99.90
2018-10-16T19:57:14.513Z,99.90
2018-10-16T19:59:43.256Z,99.90
2018-10-16T20:02:11.861Z,99.90
2018-10-16T20:04:40.430Z,99.90
2018-10-16T20:07:09.108Z,99.90
2018-10-16T20:09:37.881Z,99.90
2018-10-16T20:12:06.727Z,99.90
2018-10-16T20:14:35.652Z,99.90
2018-10-16T20:17:04.291Z,99.90
2018-10-16T20:19:32.873Z,99.90
2018-10-16T20:22:01.499Z,99.90
2018-10-16T20:24:30.391Z,99.90
2018-10-16T20:26:59.222Z,99.90
2018-10-16T20:29:27.859Z,99.90
2018-10-16T20:31:56.629Z,99.90
2018-10-16T20:34:25.305Z,99.90
2018-10-16T20:36:53.853Z,99.90
2018-10-16T20:39:22.436Z,99.90
2018-10-16T20:41:51.432Z,99.90
2018-10-16T20:44:20.028Z,99.90
2018-10-16T20:46:48.810Z,99.90
2018-10-16T20:49:17.446Z,99.90
2018-10-16T20:51:46.014Z,99.90
2018-10-16T20:54:14.580Z,99.90
2018-10-16T20:56:43.300Z,99.90
2018-10-16T20:59:11.998Z,99.90
2018-10-16T21:01:40.667Z,99.90
2018-10-16T21:04:09.280Z,99.90
2018-10-16T21:06:38.849Z,99.90
2018-10-16T21:09:08.030Z,99.90
2018-10-16T21:11:36.606Z,99.90
2018-10-16T21:14:05.410Z,99.90
2018-10-16T21:16:33.943Z,99.90
2018-10-16T21:19:02.825Z,99.90
2018-10-16T21:21:31.383Z,99.90
2018-10-16T21:24:00.044Z,99.90
2018-10-16T21:26:28.560Z,99.90
2018-10-16T21:28:57.105Z,99.90
2018-10-16T21:31:25.853Z,99.90
2018-10-16T21:33:54.356Z,99.90
2018-10-16T21:36:23.135Z,99.90
2018-10-16T21:38:51.660Z,99.90
2018-10-16T21:41:20.422Z,99.90
2018-10-16T21:43:49.098Z,99.90
2018-10-16T21:46:17.595Z,99.90
2018-10-16T21:48:46.164Z,99.90
2018-10-16T21:51:14.892Z,99.90
2018-10-16T21:53:43.351Z,99.90
2018-10-16T21:56:12.002Z,99.90
2018-10-16T21:58:40.526Z,99.90
2018-10-16T22:01:10.429Z,99.90
2018-10-16T22:03:39.724Z,99.90
2018-10-16T22:06:08.647Z,99.90
2018-10-16T22:08:37.199Z,99.90
2018-10-16T22:11:06.507Z,99.90
2018-10-16T22:13:34.974Z,99.90
2018-10-16T22:16:03.475Z,99.90
2018-10-16T22:18:32.102Z,99.90
2018-10-16T22:21:00.614Z,99.90
2018-10-16T22:23:29.123Z,99.90
2018-10-16T22:25:57.739Z,99.90
2018-10-16T22:28:26.598Z,99.90
2018-10-16T22:30:55.194Z,99.90
2018-10-16T22:33:23.791Z,99.90
2018-10-16T22:35:52.418Z,99.90
2018-10-16T22:38:20.941Z,99.90
2018-10-16T22:40:49.443Z,99.90
2018-10-16T22:43:18.194Z,99.90
2018-10-16T22:45:46.795Z,99.90
2018-10-16T22:48:15.322Z,99.90
2018-10-16T22:50:43.888Z,99.90
2018-10-16T22:53:12.433Z,99.90
2018-10-16T22:55:40.928Z,99.90
2018-10-16T22:58:09.398Z,99.90
2018-10-16T23:00:37.950Z,99.90
2018-10-16T23:03:06.579Z,99.90
2018-10-16T23:05:35.148Z,99.90
2018-10-16T23:08:03.692Z,99.90
2018-10-16T23:10:32.546Z,99.90
2018-10-16T23:13:05.710Z,99.90
2018-10-16T23:15:34.675Z,99.90
2018-10-16T23:18:03.656Z,99.90
2018-10-16T23:20:32.853Z,99.90
2018-10-16T23:23:01.540Z,99.90
2018-10-16T23:25:30.038Z,99.90
2018-10-16T23:27:58.678Z,99.90
2018-10-16T23:30:27.166Z,99.90
2018-10-16T23:32:55.825Z,99.90
2018-10-16T23:35:24.355Z,99.90
2018-10-16T23:37:52.972Z,99.90
2018-10-16T23:40:21.607Z,99.90
2018-10-16T23:42:50.139Z,99.90
2018-10-16T23:45:18.770Z,99.90
2018-10-16T23:47:47.283Z,99.90
2018-10-16T23:50:15.987Z,99.90
2018-10-16T23:52:44.486Z,99.90
2018-10-16T23:55:13.019Z,99.90
2018-10-16T23:57:41.484Z,99.90
